createdAt,value
2022-10-09T00:00:01.115Z,0.8
2022-10-09T00:03:01.468Z,0.9
2022-10-09T00:05:01.170Z,1.0
2022-10-09T00:15:01.123Z,1.0
2022-10-09T00:30:01.351Z,1.0
2022-10-09T00:45:01.460Z,1.0
2022-10-09T01:00:01.134Z,1.0
2022-10-09T01:06:01.384Z,0.9
2022-10-09T01:15:01.120Z,0.9
2022-10-09T01:23:01.509Z,1.0
2022-10-09T01:26:01.384Z,0.9
2022-10-09T01:30:01.122Z,0.9
2022-10-09T01:31:01.208Z,0.8
2022-10-09T01:32:01.115Z,0.7
2022-10-09T01:34:01.308Z,0.6
2022-10-09T01:35:01.165Z,0.5
2022-10-09T01:37:01.109Z,0.4
2022-10-09T01:38:01.118Z,0.3
2022-10-09T01:40:01.588Z,0.2
2022-10-09T01:43:02.978Z,0.1
2022-10-09T01:58:01.908Z,0.1
2022-10-09T02:00:01.114Z,0.2
2022-10-09T02:03:02.329Z,0.3
2022-10-09T02:05:01.101Z,0.4
2022-10-09T02:13:01.456Z,0.3
2022-10-09T02:15:01.135Z,0.2
2022-10-09T02:18:02.109Z,0.1
2022-10-09T04:43:01.126Z,0.1
2022-10-09T04:44:00.822Z,0.2
2022-10-09T04:47:00.827Z,0.4
2022-10-09T04:49:01.030Z,0.5
2022-10-09T04:51:00.890Z,0.7
2022-10-09T04:52:00.821Z,0.8
2022-10-09T04:53:00.858Z,1.0
2022-10-09T04:54:01.036Z,1.2
2022-10-09T04:55:00.893Z,1.4
2022-10-09T04:56:00.818Z,1.7
2022-10-09T04:57:00.821Z,2.1
2022-10-09T04:58:00.853Z,2.5
2022-10-09T04:59:01.056Z,3.0
2022-10-09T05:01:00.874Z,4.2
2022-10-09T05:02:00.879Z,4.9
2022-10-09T05:03:00.848Z,6.1
2022-10-09T05:04:01.032Z,7.3
2022-10-09T05:05:00.837Z,8.5
2022-10-09T05:06:00.834Z,10.4
2022-10-09T05:07:00.826Z,12.3
2022-10-09T05:08:01.109Z,15.2
2022-10-09T05:09:01.033Z,18.1
2022-10-09T05:10:00.830Z,21.1
2022-10-09T05:11:00.825Z,25.6
2022-10-09T05:12:00.824Z,30.1
2022-10-09T05:13:00.886Z,37.2
2022-10-09T05:14:01.033Z,44.3
2022-10-09T05:15:01.290Z,51.3
2022-10-09T05:16:00.876Z,62.4
2022-10-09T05:17:13.419Z,73.5
2022-10-09T05:18:05.829Z,91.1
2022-10-09T05:19:06.962Z,108.7
2022-10-09T05:20:00.833Z,126.3
2022-10-09T05:21:00.833Z,153.7
2022-10-09T05:22:00.830Z,181.1
2022-10-09T05:23:00.820Z,220.3
2022-10-09T05:24:01.065Z,259.5
2022-10-09T05:25:00.836Z,298.7
2022-10-09T05:26:00.830Z,353.1
2022-10-09T05:27:01.152Z,407.5
2022-10-09T05:28:00.945Z,478.6
2022-10-09T05:29:01.133Z,549.7
2022-10-09T05:30:01.498Z,620.9
2022-10-09T05:31:01.944Z,706.6
2022-10-09T05:32:00.998Z,792.3
2022-10-09T05:33:00.835Z,887.8
2022-10-09T05:34:01.034Z,983.3
2022-10-09T05:35:00.847Z,1078.7
2022-10-09T05:36:00.838Z,1185.5
2022-10-09T05:37:00.831Z,1292.2
2022-10-09T05:38:00.835Z,1416.2
2022-10-09T05:39:01.055Z,1540.2
2022-10-09T05:40:01.322Z,1664.2
2022-10-09T05:41:00.833Z,1803.9
2022-10-09T05:42:00.834Z,1943.5
2022-10-09T05:43:00.862Z,2098.5
2022-10-09T05:44:02.066Z,2253.5
2022-10-09T05:45:01.331Z,2408.5
2022-10-09T05:46:00.841Z,2587.9
2022-10-09T05:47:00.857Z,2767.3
2022-10-09T05:48:00.863Z,2946.2
2022-10-09T05:49:01.040Z,3125.1
2022-10-09T05:50:01.539Z,3303.9
2022-10-09T05:51:00.832Z,3504.7
2022-10-09T05:52:05.960Z,3705.5
2022-10-09T05:53:00.882Z,3961.9
2022-10-09T05:54:01.165Z,4218.3
2022-10-09T05:55:00.914Z,4474.7
2022-10-09T05:56:03.661Z,4795.1
2022-10-09T05:57:00.962Z,5115.5
2022-10-09T05:58:00.954Z,5444.9
2022-10-09T05:59:01.043Z,5774.2
2022-10-09T06:00:01.265Z,6103.5
2022-10-09T06:01:00.971Z,6450.9
2022-10-09T06:02:00.913Z,6798.2
2022-10-09T06:03:00.993Z,7289.0
2022-10-09T06:04:01.147Z,7779.8
2022-10-09T06:05:01.132Z,8270.6
2022-10-09T06:06:01.129Z,8971.2
2022-10-09T06:07:00.840Z,9671.8
2022-10-09T06:08:01.047Z,10410.7
2022-10-09T06:09:15.853Z,11149.7
2022-10-09T06:11:00.821Z,12679.9
2022-10-09T06:12:00.847Z,13471.3
2022-10-09T06:13:00.889Z,14367.3
2022-10-09T06:14:00.842Z,15263.4
2022-10-09T06:16:01.871Z,17164.3
2022-10-09T06:17:00.988Z,18169.1
2022-10-09T06:18:00.872Z,18979.8
2022-10-09T06:19:04.421Z,19790.5
2022-10-09T06:21:00.842Z,21019.5
2022-10-09T06:22:00.847Z,21437.7
2022-10-09T06:23:00.879Z,21805.2
2022-10-09T06:24:00.849Z,22172.7
2022-10-09T06:25:02.432Z,22540.3
2022-10-09T06:26:00.855Z,22682.8
2022-10-09T06:27:00.849Z,22825.3
2022-10-09T06:28:00.891Z,22929.2
2022-10-09T06:29:00.898Z,23033.1
2022-10-09T06:31:00.898Z,23241.9
2022-10-09T06:32:00.853Z,23346.8
2022-10-09T06:33:00.889Z,23534.8
2022-10-09T06:34:00.857Z,23722.8
2022-10-09T06:36:08.702Z,24264.1
2022-10-09T06:37:00.844Z,24617.3
2022-10-09T06:38:00.877Z,24999.7
2022-10-09T06:39:00.857Z,25382.1
2022-10-09T06:40:01.549Z,25764.5
2022-10-09T06:41:00.852Z,26213.9
2022-10-09T06:42:00.856Z,26663.3
2022-10-09T06:43:00.893Z,27150.3
2022-10-09T06:44:00.850Z,27637.3
2022-10-09T06:46:00.917Z,28797.3
2022-10-09T06:47:00.893Z,29470.2
2022-10-09T06:48:00.877Z,30247.9
2022-10-09T06:49:00.854Z,31025.7
2022-10-09T06:51:00.881Z,32495.2
2022-10-09T06:52:01.042Z,33187.0
2022-10-09T06:53:00.879Z,34208.8
2022-10-09T06:54:00.857Z,35230.6
2022-10-09T06:56:00.858Z,37338.3
2022-10-09T06:57:00.856Z,38424.3
2022-10-09T06:58:00.888Z,39362.8
2022-10-09T06:59:00.862Z,40552.5
2022-10-09T07:01:00.856Z,42586.5
2022-10-09T07:02:01.053Z,43430.8
2022-10-09T07:03:00.979Z,44121.7
2022-10-09T07:04:00.860Z,44976.1
2022-10-09T07:05:11.704Z,45830.5
2022-10-09T07:06:00.865Z,47218.3
2022-10-09T07:07:00.888Z,48606.1
2022-10-09T07:08:00.889Z,49561.3
2022-10-09T07:09:00.864Z,50996.9
2022-10-09T07:11:00.858Z,53812.9
2022-10-09T07:12:00.864Z,55193.4
2022-10-09T07:13:00.890Z,56573.9
2022-10-09T07:14:00.867Z,57703.2
2022-10-09T07:16:04.610Z,59950.2
2022-10-09T07:17:00.863Z,61067.9
2022-10-09T07:18:00.886Z,62185.5
2022-10-09T07:19:00.877Z,63139.7
2022-10-09T07:21:00.870Z,64574.2
2022-10-09T07:22:00.860Z,65054.6
2022-10-09T07:23:00.924Z,65535.0
2022-10-09T08:00:23.838Z,65535.0
2022-10-09T09:24:01.077Z,65521.4
2022-10-09T09:25:01.589Z,65507.8
2022-10-09T10:05:02.988Z,65535.0
2022-10-09T10:45:02.423Z,65535.0
2022-10-09T11:15:02.028Z,65535.0
2022-10-09T12:00:03.051Z,65535.0
2022-10-09T13:30:02.150Z,65535.0
2022-10-09T13:45:01.935Z,65535.0
2022-10-09T14:01:01.002Z,65393.5
2022-10-09T14:02:01.079Z,65251.9
2022-10-09T14:03:01.041Z,65110.4
2022-10-09T14:14:01.109Z,65090.6
2022-10-09T14:16:01.073Z,65032.3
2022-10-09T14:17:00.979Z,64993.9
2022-10-09T14:18:01.044Z,64955.4
2022-10-09T14:21:00.993Z,64389.3
2022-10-09T14:22:02.073Z,63823.3
2022-10-09T14:23:00.983Z,63257.2
2022-10-09T14:24:00.986Z,62052.4
2022-10-09T14:26:00.979Z,59783.1
2022-10-09T14:27:01.055Z,58718.5
2022-10-09T14:28:00.990Z,57654.0
2022-10-09T14:29:00.991Z,56355.7
2022-10-09T14:30:03.646Z,55057.3
2022-10-09T14:31:00.993Z,53567.3
2022-10-09T14:32:01.012Z,52077.2
2022-10-09T14:33:00.987Z,50587.1
2022-10-09T14:34:00.997Z,49147.8
2022-10-09T14:36:01.274Z,46656.4
2022-10-09T14:37:01.054Z,45604.3
2022-10-09T14:38:00.998Z,44552.3
2022-10-09T14:39:01.125Z,43961.3
2022-10-09T14:41:01.063Z,42609.3
2022-10-09T14:42:00.999Z,41848.3
2022-10-09T14:43:05.993Z,41087.3
2022-10-09T14:44:01.104Z,40462.0
2022-10-09T14:46:00.996Z,41506.8
2022-10-09T14:47:01.037Z,43176.9
2022-10-09T14:48:01.022Z,44846.9
2022-10-09T14:49:00.992Z,45658.9
2022-10-09T14:51:01.004Z,46434.0
2022-10-09T14:52:01.119Z,46397.1
2022-10-09T14:53:00.992Z,46360.1
2022-10-09T14:54:00.998Z,46188.8
2022-10-09T14:55:01.217Z,46017.5
2022-10-09T14:56:00.993Z,45657.9
2022-10-09T14:57:04.950Z,45298.4
2022-10-09T14:58:01.002Z,44938.9
2022-10-09T14:59:01.030Z,44806.8
2022-10-09T15:00:03.314Z,44674.7
2022-10-09T15:01:01.008Z,42375.6
2022-10-09T15:02:01.059Z,40076.5
2022-10-09T15:03:01.069Z,37777.3
2022-10-09T15:04:01.152Z,35957.4
2022-10-09T15:05:01.413Z,34137.5
2022-10-09T15:06:01.057Z,33289.2
2022-10-09T15:07:01.066Z,32440.9
2022-10-09T15:08:01.004Z,31592.7
2022-10-09T15:09:03.028Z,31229.5
2022-10-09T15:10:01.213Z,30866.4
2022-10-09T15:11:02.093Z,30718.1
2022-10-09T15:12:01.071Z,30569.9
2022-10-09T15:13:01.019Z,30421.6
2022-10-09T15:14:01.074Z,30150.6
2022-10-09T15:16:01.049Z,29787.1
2022-10-09T15:17:01.041Z,29694.5
2022-10-09T15:18:01.076Z,29602.0
2022-10-09T15:19:01.018Z,29606.5
2022-10-09T15:21:01.009Z,29654.4
2022-10-09T15:22:01.040Z,29697.7
2022-10-09T15:23:01.006Z,29741.1
2022-10-09T15:24:01.164Z,29605.3
2022-10-09T15:25:01.295Z,29469.6
2022-10-09T15:26:01.005Z,29308.8
2022-10-09T15:27:01.005Z,29148.0
2022-10-09T15:28:01.213Z,28987.2
2022-10-09T15:29:01.020Z,28773.1
2022-10-09T15:31:02.068Z,28358.5
2022-10-09T15:32:01.057Z,28158.0
2022-10-09T15:33:01.007Z,27957.5
2022-10-09T15:34:01.084Z,27817.0
2022-10-09T15:35:01.252Z,27676.5
2022-10-09T15:36:01.052Z,27539.9
2022-10-09T15:37:01.143Z,27403.3
2022-10-09T15:38:01.079Z,27266.7
2022-10-09T15:39:01.014Z,27165.7
2022-10-09T15:41:01.098Z,26891.6
2022-10-09T15:42:01.017Z,26718.5
2022-10-09T15:43:01.077Z,26545.3
2022-10-09T15:44:01.016Z,26524.9
2022-10-09T15:46:01.048Z,26317.7
2022-10-09T15:47:01.026Z,26130.8
2022-10-09T15:48:01.297Z,25943.9
2022-10-09T15:49:01.028Z,25509.9
2022-10-09T15:51:01.014Z,24587.4
2022-10-09T15:52:01.077Z,24099.0
2022-10-09T15:53:01.013Z,23610.6
2022-10-09T15:54:01.012Z,23038.7
2022-10-09T15:55:01.350Z,22466.9
2022-10-09T15:56:01.108Z,21938.4
2022-10-09T15:57:01.052Z,21409.9
2022-10-09T15:58:01.019Z,20881.5
2022-10-09T15:59:01.025Z,20195.1
2022-10-09T16:01:01.091Z,18960.1
2022-10-09T16:02:01.163Z,18411.5
2022-10-09T16:03:02.118Z,17862.8
2022-10-09T16:04:02.108Z,17493.6
2022-10-09T16:06:01.018Z,16757.3
2022-10-09T16:07:01.241Z,16390.3
2022-10-09T16:08:01.052Z,16023.2
2022-10-09T16:09:01.163Z,15648.9
2022-10-09T16:11:02.154Z,14908.2
2022-10-09T16:12:02.055Z,14541.7
2022-10-09T16:13:01.028Z,14175.3
2022-10-09T16:14:01.110Z,13818.2
2022-10-09T16:16:01.156Z,13093.9
2022-10-09T16:17:01.024Z,12726.7
2022-10-09T16:18:01.057Z,12359.5
2022-10-09T16:19:01.038Z,11976.2
2022-10-09T16:21:01.024Z,11203.2
2022-10-09T16:22:01.029Z,10813.5
2022-10-09T16:23:01.030Z,10423.9
2022-10-09T16:24:01.053Z,10026.4
2022-10-09T16:26:01.034Z,9220.9
2022-10-09T16:27:01.069Z,8812.9
2022-10-09T16:28:01.030Z,8404.9
2022-10-09T16:29:01.065Z,8010.0
2022-10-09T16:31:01.321Z,7240.5
2022-10-09T16:32:01.323Z,6865.9
2022-10-09T16:33:01.034Z,6491.3
2022-10-09T16:34:01.038Z,6145.7
2022-10-09T16:35:02.120Z,5800.1
2022-10-09T16:36:01.036Z,5484.2
2022-10-09T16:37:01.042Z,5168.3
2022-10-09T16:38:01.102Z,4852.5
2022-10-09T16:39:01.100Z,4567.5
2022-10-09T16:41:02.429Z,4021.6
2022-10-09T16:42:01.043Z,3760.6
2022-10-09T16:43:01.035Z,3499.6
2022-10-09T16:44:01.038Z,3255.5
2022-10-09T16:45:01.682Z,3011.3
2022-10-09T16:46:01.039Z,2790.3
2022-10-09T16:47:01.041Z,2569.3
2022-10-09T16:48:01.043Z,2348.3
2022-10-09T16:49:01.055Z,2152.3
2022-10-09T16:51:01.173Z,1785.8
2022-10-09T16:52:01.366Z,1615.4
2022-10-09T16:53:01.041Z,1445.0
2022-10-09T16:54:02.394Z,1299.3
2022-10-09T16:56:01.072Z,1033.7
2022-10-09T16:57:01.040Z,913.9
2022-10-09T16:58:01.062Z,794.1
2022-10-09T16:59:01.064Z,700.1
2022-10-09T17:01:01.111Z,535.2
2022-10-09T17:02:01.118Z,464.3
2022-10-09T17:03:01.038Z,393.3
2022-10-09T17:04:01.046Z,340.7
2022-10-09T17:05:01.724Z,288.1
2022-10-09T17:06:01.045Z,250.3
2022-10-09T17:07:01.054Z,212.5
2022-10-09T17:08:01.054Z,174.7
2022-10-09T17:09:01.062Z,149.1
2022-10-09T17:10:01.814Z,123.4
2022-10-09T17:11:01.057Z,106.7
2022-10-09T17:12:01.082Z,90.1
2022-10-09T17:13:01.055Z,73.4
2022-10-09T17:14:01.041Z,62.7
2022-10-09T17:16:01.146Z,45.0
2022-10-09T17:17:01.137Z,38.1
2022-10-09T17:18:01.046Z,31.1
2022-10-09T17:19:01.336Z,26.6
2022-10-09T17:20:01.290Z,22.1
2022-10-09T17:21:01.054Z,19.1
2022-10-09T17:22:01.061Z,16.2
2022-10-09T17:23:01.046Z,13.3
2022-10-09T17:24:01.087Z,11.3
2022-10-09T17:26:02.148Z,8.2
2022-10-09T17:27:01.048Z,7.0
2022-10-09T17:28:04.409Z,5.8
2022-10-09T17:29:01.057Z,5.0
2022-10-09T17:31:01.339Z,3.7
2022-10-09T17:32:01.070Z,3.1
2022-10-09T17:33:01.066Z,2.6
2022-10-09T17:34:01.059Z,2.3
2022-10-09T17:36:01.084Z,1.7
2022-10-09T17:37:01.088Z,1.4
2022-10-09T17:38:01.098Z,1.1
2022-10-09T17:39:01.061Z,1.0
2022-10-09T17:41:01.066Z,0.7
2022-10-09T17:42:01.060Z,0.6
2022-10-09T17:43:01.051Z,0.5
2022-10-09T17:44:01.204Z,0.4
2022-10-09T17:47:01.054Z,0.2
2022-10-09T17:48:01.052Z,0.1
2022-10-09T19:32:01.178Z,0.1
2022-10-09T19:34:01.088Z,0.2
2022-10-09T19:37:01.152Z,0.4
2022-10-09T19:38:01.106Z,0.5
2022-10-09T19:40:01.325Z,0.6
2022-10-09T19:41:01.096Z,0.7
2022-10-09T19:43:01.160Z,0.8
2022-10-09T19:44:01.093Z,0.9
2022-10-09T19:46:01.117Z,1.0
2022-10-09T20:00:03.203Z,1.0
2022-10-09T22:49:01.192Z,1.1
2022-10-09T22:51:01.446Z,1.2
2022-10-09T22:52:01.124Z,1.3
2022-10-09T22:54:01.110Z,1.4
2022-10-09T22:55:01.120Z,1.5
2022-10-09T22:57:06.321Z,1.6
2022-10-09T23:02:01.650Z,1.7
2022-10-09T23:06:01.337Z,1.6
2022-10-09T23:07:01.148Z,1.5
2022-10-09T23:16:01.105Z,1.7
2022-10-09T23:20:01.393Z,1.8
2022-10-09T23:21:01.105Z,1.9
2022-10-09T23:23:01.134Z,2.0
